sensor_id;sensor_type;location;lat;lon;timestamp;pressure;altitude;pressure_sealevel;temperature;humidity
60589;BME280;46421;48.610;9.334;2022-12-19T00:01:57;98985.03;;;-4.06;98.69
60589;BME280;46421;48.610;9.334;2022-12-19T00:04:22;98976.28;;;-4.04;98.95
60589;BME280;46421;48.610;9.334;2022-12-19T00:06:48;98978.97;;;-3.85;97.52
60589;BME280;46421;48.610;9.334;2022-12-19T00:09:13;98985.69;;;-3.79;97.68
60589;BME280;46421;48.610;9.334;2022-12-19T00:11:39;98983.34;;;-3.65;97.44
60589;BME280;46421;48.610;9.334;2022-12-19T00:14:05;98989.19;;;-3.80;97.25
60589;BME280;46421;48.610;9.334;2022-12-19T00:16:30;98988.97;;;-3.74;96.76
60589;BME280;46421;48.610;9.334;2022-12-19T00:18:58;98986.16;;;-3.69;96.33
60589;BME280;46421;48.610;9.334;2022-12-19T00:21:26;98989.50;;;-3.66;96.72
60589;BME280;46421;48.610;9.334;2022-12-19T00:23:51;98992.56;;;-3.78;97.53
60589;BME280;46421;48.610;9.334;2022-12-19T00:26:29;98994.09;;;-3.72;96.19
60589;BME280;46421;48.610;9.334;2022-12-19T00:28:57;99003.91;;;-4.01;98.14
60589;BME280;46421;48.610;9.334;2022-12-19T00:31:25;98991.03;;;-4.26;100.00
60589;BME280;46421;48.610;9.334;2022-12-19T00:33:50;98987.78;;;-4.32;100.00
60589;BME280;46421;48.610;9.334;2022-12-19T00:36:18;98988.00;;;-4.38;100.00
60589;BME280;46421;48.610;9.334;2022-12-19T00:38:45;98991.03;;;-4.26;100.00
60589;BME280;46421;48.610;9.334;2022-12-19T00:41:15;98999.13;;;-4.12;100.00
60589;BME280;46421;48.610;9.334;2022-12-19T00:43:41;99000.44;;;-4.02;100.00
60589;BME280;46421;48.610;9.334;2022-12-19T00:46:11;98995.78;;;-3.93;100.00
60589;BME280;46421;48.610;9.334;2022-12-19T00:48:36;98995.34;;;-3.83;100.00
60589;BME280;46421;48.610;9.334;2022-12-19T00:51:11;98984.50;;;-3.92;100.00
60589;BME280;46421;48.610;9.334;2022-12-19T00:53:37;98974.19;;;-3.94;100.00
60589;BME280;46421;48.610;9.334;2022-12-19T00:56:04;98976.63;;;-3.91;100.00
60589;BME280;46421;48.610;9.334;2022-12-19T00:58:30;98975.81;;;-3.71;99.20
60589;BME280;46421;48.610;9.334;2022-12-19T01:00:56;98977.06;;;-3.59;98.68
60589;BME280;46421;48.610;9.334;2022-12-19T01:03:22;98955.22;;;-3.75;99.50
60589;BME280;46421;48.610;9.334;2022-12-19T01:05:49;98973.75;;;-3.83;99.33
60589;BME280;46421;48.610;9.334;2022-12-19T01:08:18;98965.88;;;-3.82;100.00
60589;BME280;46421;48.610;9.334;2022-12-19T01:10:47;98973.22;;;-3.71;99.94
60589;BME280;46421;48.610;9.334;2022-12-19T01:13:15;98965.03;;;-3.82;100.00
60589;BME280;46421;48.610;9.334;2022-12-19T01:15:41;98966.22;;;-3.69;99.60
60589;BME280;46421;48.610;9.334;2022-12-19T01:18:08;98952.88;;;-3.82;100.00
60589;BME280;46421;48.610;9.334;2022-12-19T01:20:40;98971.53;;;-3.72;99.04
60589;BME280;46421;48.610;9.334;2022-12-19T01:23:07;98990.88;;;-3.79;100.00
60589;BME280;46421;48.610;9.334;2022-12-19T01:25:36;98988.81;;;-3.71;100.00
60589;BME280;46421;48.610;9.334;2022-12-19T01:28:04;98975.44;;;-3.82;99.97
60589;BME280;46421;48.610;9.334;2022-12-19T01:30:29;98986.53;;;-3.78;99.82
60589;BME280;46421;48.610;9.334;2022-12-19T01:32:56;98975.16;;;-3.97;100.00
60589;BME280;46421;48.610;9.334;2022-12-19T01:35:21;98972.97;;;-4.07;100.00
60589;BME280;46421;48.610;9.334;2022-12-19T01:37:46;98963.25;;;-4.02;100.00
60589;BME280;46421;48.610;9.334;2022-12-19T01:40:12;98956.97;;;-3.97;100.00
60589;BME280;46421;48.610;9.334;2022-12-19T01:42:38;98953.06;;;-3.86;100.00
60589;BME280;46421;48.610;9.334;2022-12-19T01:47:35;98951.38;;;-3.87;100.00
60589;BME280;46421;48.610;9.334;2022-12-19T01:50:03;98947.16;;;-3.69;100.00
60589;BME280;46421;48.610;9.334;2022-12-19T01:52:28;98944.97;;;-3.58;100.00
60589;BME280;46421;48.610;9.334;2022-12-19T01:54:54;98944.66;;;-3.50;100.00
60589;BME280;46421;48.610;9.334;2022-12-19T01:57:20;98941.94;;;-3.28;100.00
60589;BME280;46421;48.610;9.334;2022-12-19T01:59:51;98925.06;;;-3.38;100.00
60589;BME280;46421;48.610;9.334;2022-12-19T02:02:32;98935.69;;;-3.43;100.00
60589;BME280;46421;48.610;9.334;2022-12-19T02:05:03;98923.19;;;-3.35;100.00
60589;BME280;46421;48.610;9.334;2022-12-19T02:07:30;98924.16;;;-3.37;100.00
60589;BME280;46421;48.610;9.334;2022-12-19T02:09:56;98912.00;;;-3.37;100.00
60589;BME280;46421;48.610;9.334;2022-12-19T02:12:28;98914.22;;;-3.27;100.00
60589;BME280;46421;48.610;9.334;2022-12-19T02:14:55;98910.81;;;-3.29;100.00
60589;BME280;46421;48.610;9.334;2022-12-19T02:20:27;98909.41;;;-3.37;100.00
60589;BME280;46421;48.610;9.334;2022-12-19T02:25:56;98904.13;;;-3.35;100.00
60589;BME280;46421;48.610;9.334;2022-12-19T02:36:40;98897.25;;;-3.17;100.00
60589;BME280;46421;48.610;9.334;2022-12-19T02:39:10;98894.75;;;-3.19;100.00
60589;BME280;46421;48.610;9.334;2022-12-19T02:41:43;98892.84;;;-3.15;100.00
60589;BME280;46421;48.610;9.334;2022-12-19T02:44:21;98900.44;;;-3.10;100.00
60589;BME280;46421;48.610;9.334;2022-12-19T02:46:49;98915.25;;;-3.12;100.00
60589;BME280;46421;48.610;9.334;2022-12-19T02:49:15;98915.06;;;-3.08;100.00
60589;BME280;46421;48.610;9.334;2022-12-19T02:51:40;98896.03;;;-3.08;100.00
60589;BME280;46421;48.610;9.334;2022-12-19T02:54:06;98900.31;;;-3.07;100.00
60589;BME280;46421;48.610;9.334;2022-12-19T02:56:42;98916.84;;;-3.08;100.00
60589;BME280;46421;48.610;9.334;2022-12-19T03:04:57;98902.13;;;-2.90;100.00
60589;BME280;46421;48.610;9.334;2022-12-19T03:07:38;98904.38;;;-2.82;100.00
60589;BME280;46421;48.610;9.334;2022-12-19T03:10:21;98910.16;;;-2.95;100.00
60589;BME280;46421;48.610;9.334;2022-12-19T03:15:46;98936.09;;;-2.93;100.00
60589;BME280;46421;48.610;9.334;2022-12-19T03:18:12;98933.09;;;-2.84;100.00
60589;BME280;46421;48.610;9.334;2022-12-19T03:21:01;98919.00;;;-2.80;100.00
60589;BME280;46421;48.610;9.334;2022-12-19T03:23:29;98917.34;;;-2.81;100.00
60589;BME280;46421;48.610;9.334;2022-12-19T03:26:02;98915.94;;;-2.88;100.00
60589;BME280;46421;48.610;9.334;2022-12-19T03:28:37;98908.03;;;-2.87;100.00
60589;BME280;46421;48.610;9.334;2022-12-19T03:31:05;98900.94;;;-2.83;100.00
60589;BME280;46421;48.610;9.334;2022-12-19T03:33:31;98912.25;;;-2.84;100.00
60589;BME280;46421;48.610;9.334;2022-12-19T03:36:03;98911.97;;;-2.78;100.00
60589;BME280;46421;48.610;9.334;2022-12-19T03:38:31;98924.00;;;-2.75;100.00
60589;BME280;46421;48.610;9.334;2022-12-19T03:40:58;98920.97;;;-2.66;100.00
60589;BME280;46421;48.610;9.334;2022-12-19T03:43:25;98918.25;;;-2.63;100.00
60589;BME280;46421;48.610;9.334;2022-12-19T03:46:09;98934.41;;;-2.56;100.00
60589;BME280;46421;48.610;9.334;2022-12-19T03:48:46;98926.88;;;-2.62;100.00
60589;BME280;46421;48.610;9.334;2022-12-19T03:53:59;98929.63;;;-2.65;100.00
60589;BME280;46421;48.610;9.334;2022-12-19T04:01:45;98927.53;;;-2.57;100.00
60589;BME280;46421;48.610;9.334;2022-12-19T04:04:12;98929.69;;;-2.48;100.00
60589;BME280;46421;48.610;9.334;2022-12-19T04:06:39;98940.75;;;-2.43;100.00
60589;BME280;46421;48.610;9.334;2022-12-19T04:09:07;98936.38;;;-2.42;100.00
60589;BME280;46421;48.610;9.334;2022-12-19T04:11:37;98939.66;;;-2.39;100.00
60589;BME280;46421;48.610;9.334;2022-12-19T04:14:11;98947.25;;;-2.34;100.00
60589;BME280;46421;48.610;9.334;2022-12-19T04:16:50;98941.28;;;-2.36;100.00
60589;BME280;46421;48.610;9.334;2022-12-19T04:19:53;98932.81;;;-2.22;100.00
60589;BME280;46421;48.610;9.334;2022-12-19T04:22:25;98938.44;;;-2.31;100.00
60589;BME280;46421;48.610;9.334;2022-12-19T04:24:55;98938.44;;;-2.31;100.00
60589;BME280;46421;48.610;9.334;2022-12-19T04:27:22;98932.13;;;-2.26;100.00
60589;BME280;46421;48.610;9.334;2022-12-19T04:29:50;98943.31;;;-2.24;100.00
60589;BME280;46421;48.610;9.334;2022-12-19T04:32:18;98934.50;;;-2.21;100.00
60589;BME280;46421;48.610;9.334;2022-12-19T04:34:44;98929.38;;;-2.23;100.00
60589;BME280;46421;48.610;9.334;2022-12-19T04:37:10;98931.47;;;-2.12;100.00
60589;BME280;46421;48.610;9.334;2022-12-19T04:39:35;98937.19;;;-2.05;100.00
60589;BME280;46421;48.610;9.334;2022-12-19T04:42:01;98934.59;;;-2.05;100.00
60589;BME280;46421;48.610;9.334;2022-12-19T04:44:26;98936.50;;;-2.09;100.00
60589;BME280;46421;48.610;9.334;2022-12-19T04:46:51;98939.41;;;-2.15;100.00
60589;BME280;46421;48.610;9.334;2022-12-19T04:49:17;98937.19;;;-2.05;100.00
60589;BME280;46421;48.610;9.334;2022-12-19T04:51:42;98933.63;;;-2.02;100.00
60589;BME280;46421;48.610;9.334;2022-12-19T04:54:07;98937.13;;;-2.03;100.00
60589;BME280;46421;48.610;9.334;2022-12-19T04:56:33;98936.06;;;-1.99;100.00
60589;BME280;46421;48.610;9.334;2022-12-19T04:58:59;98932.31;;;-1.94;100.00
60589;BME280;46421;48.610;9.334;2022-12-19T05:01:25;98925.88;;;-1.86;100.00
60589;BME280;46421;48.610;9.334;2022-12-19T05:03:50;98923.66;;;-1.77;100.00
60589;BME280;46421;48.610;9.334;2022-12-19T05:06:17;98921.94;;;-1.78;100.00
60589;BME280;46421;48.610;9.334;2022-12-19T05:08:43;98924.72;;;-1.81;100.00
60589;BME280;46421;48.610;9.334;2022-12-19T05:11:10;98920.56;;;-1.85;100.00
60589;BME280;46421;48.610;9.334;2022-12-19T05:13:36;98920.03;;;-1.74;100.00
60589;BME280;46421;48.610;9.334;2022-12-19T05:16:04;98907.94;;;-1.75;100.00
60589;BME280;46421;48.610;9.334;2022-12-19T05:18:30;98908.09;;;-1.78;100.00
60589;BME280;46421;48.610;9.334;2022-12-19T05:20:56;98909.69;;;-1.76;100.00
60589;BME280;46421;48.610;9.334;2022-12-19T05:23:22;98909.47;;;-1.71;100.00
60589;BME280;46421;48.610;9.334;2022-12-19T05:25:48;98901.09;;;-1.78;100.00
60589;BME280;46421;48.610;9.334;2022-12-19T05:28:14;98906.25;;;-1.76;100.00
60589;BME280;46421;48.610;9.334;2022-12-19T05:30:39;98898.66;;;-1.81;100.00
60589;BME280;46421;48.610;9.334;2022-12-19T05:33:05;98896.38;;;-1.87;100.00
60589;BME280;46421;48.610;9.334;2022-12-19T05:35:31;98895.06;;;-1.96;100.00
60589;BME280;46421;48.610;9.334;2022-12-19T05:37:57;98898.34;;;-1.92;100.00
60589;BME280;46421;48.610;9.334;2022-12-19T05:40:22;98887.00;;;-1.91;100.00
60589;BME280;46421;48.610;9.334;2022-12-19T05:42:48;98884.09;;;-1.85;100.00
60589;BME280;46421;48.610;9.334;2022-12-19T05:45:13;98886.56;;;-1.82;100.00
60589;BME280;46421;48.610;9.334;2022-12-19T05:47:38;98882.03;;;-1.78;100.00
60589;BME280;46421;48.610;9.334;2022-12-19T05:50:04;98879.28;;;-1.75;100.00
60589;BME280;46421;48.610;9.334;2022-12-19T05:52:30;98884.94;;;-1.84;100.00
60589;BME280;46421;48.610;9.334;2022-12-19T05:54:56;98885.69;;;-1.82;100.00
60589;BME280;46421;48.610;9.334;2022-12-19T05:57:21;98881.16;;;-1.79;100.00
60589;BME280;46421;48.610;9.334;2022-12-19T05:59:46;98878.31;;;-1.74;100.00
60589;BME280;46421;48.610;9.334;2022-12-19T06:02:12;98877.25;;;-1.70;100.00
60589;BME280;46421;48.610;9.334;2022-12-19T06:04:37;98873.66;;;-1.67;100.00
60589;BME280;46421;48.610;9.334;2022-12-19T06:07:03;98875.34;;;-1.66;100.00
60589;BME280;46421;48.610;9.334;2022-12-19T06:09:28;98881.78;;;-1.73;100.00
60589;BME280;46421;48.610;9.334;2022-12-19T06:11:53;98877.59;;;-1.76;100.00
60589;BME280;46421;48.610;9.334;2022-12-19T06:14:19;98883.31;;;-1.69;100.00
60589;BME280;46421;48.610;9.334;2022-12-19T06:16:44;98888.47;;;-1.68;100.00
60589;BME280;46421;48.610;9.334;2022-12-19T06:19:10;98886.00;;;-1.71;100.00
60589;BME280;46421;48.610;9.334;2022-12-19T06:21:35;98884.53;;;-1.77;100.00
60589;BME280;46421;48.610;9.334;2022-12-19T06:24:00;98892.00;;;-1.69;100.00
60589;BME280;46421;48.610;9.334;2022-12-19T06:26:26;98888.59;;;-1.71;100.00
60589;BME280;46421;48.610;9.334;2022-12-19T06:28:52;98881.78;;;-1.73;100.00
60589;BME280;46421;48.610;9.334;2022-12-19T06:31:21;98881.47;;;-1.67;100.00
60589;BME280;46421;48.610;9.334;2022-12-19T06:33:47;98884.91;;;-1.67;100.00
60589;BME280;46421;48.610;9.334;2022-12-19T06:36:27;98877.19;;;-1.68;100.00
60589;BME280;46421;48.610;9.334;2022-12-19T06:38:54;98879.56;;;-1.64;100.00
60589;BME280;46421;48.610;9.334;2022-12-19T06:41:20;98886.53;;;-1.64;100.00
60589;BME280;46421;48.610;9.334;2022-12-19T06:44:06;98887.97;;;-1.59;100.00
60589;BME280;46421;48.610;9.334;2022-12-19T06:46:32;98882.53;;;-1.54;100.00
60589;BME280;46421;48.610;9.334;2022-12-19T06:48:58;98884.28;;;-1.54;100.00
60589;BME280;46421;48.610;9.334;2022-12-19T06:51:24;98877.97;;;-1.50;100.00
60589;BME280;46421;48.610;9.334;2022-12-19T06:53:50;98872.78;;;-1.50;100.00
60589;BME280;46421;48.610;9.334;2022-12-19T06:56:18;98871.75;;;-1.48;100.00
60589;BME280;46421;48.610;9.334;2022-12-19T06:58:44;98878.75;;;-1.48;100.00
60589;BME280;46421;48.610;9.334;2022-12-19T07:03:43;98880.78;;;-1.53;100.00
60589;BME280;46421;48.610;9.334;2022-12-19T07:06:10;98876.25;;;-1.50;100.00
60589;BME280;46421;48.610;9.334;2022-12-19T07:08:35;98876.97;;;-1.48;100.00
60589;BME280;46421;48.610;9.334;2022-12-19T07:11:00;98883.88;;;-1.47;100.00
60589;BME280;46421;48.610;9.334;2022-12-19T07:13:26;98870.09;;;-1.49;100.00
60589;BME280;46421;48.610;9.334;2022-12-19T07:15:53;98873.31;;;-1.44;100.00
60589;BME280;46421;48.610;9.334;2022-12-19T07:18:19;98873.97;;;-1.40;100.00
60589;BME280;46421;48.610;9.334;2022-12-19T07:20:44;98873.06;;;-1.39;100.00
60589;BME280;46421;48.610;9.334;2022-12-19T07:23:13;98878.97;;;-1.35;100.00
60589;BME280;46421;48.610;9.334;2022-12-19T07:25:40;98883.25;;;-1.34;100.00
60589;BME280;46421;48.610;9.334;2022-12-19T07:28:06;98880.72;;;-1.36;100.00
60589;BME280;46421;48.610;9.334;2022-12-19T07:30:32;98883.59;;;-1.40;100.00
60589;BME280;46421;48.610;9.334;2022-12-19T07:32:57;98892.94;;;-1.36;100.00
60589;BME280;46421;48.610;9.334;2022-12-19T07:35:23;98891.91;;;-1.34;100.00
60589;BME280;46421;48.610;9.334;2022-12-19T07:37:49;98882.94;;;-1.28;100.00
60589;BME280;46421;48.610;9.334;2022-12-19T07:40:15;98881.69;;;-1.21;100.00
60589;BME280;46421;48.610;9.334;2022-12-19T07:42:40;98879.50;;;-1.13;100.00
60589;BME280;46421;48.610;9.334;2022-12-19T07:45:06;98877.00;;;-1.14;100.00
60589;BME280;46421;48.610;9.334;2022-12-19T07:47:32;98877.81;;;-1.14;100.00
60589;BME280;46421;48.610;9.334;2022-12-19T07:49:57;98882.88;;;-1.10;100.00
60589;BME280;46421;48.610;9.334;2022-12-19T07:52:23;98880.72;;;-1.02;100.00
60589;BME280;46421;48.610;9.334;2022-12-19T07:54:48;98868.16;;;-0.96;100.00
60589;BME280;46421;48.610;9.334;2022-12-19T07:57:13;98884.84;;;-0.98;100.00
60589;BME280;46421;48.610;9.334;2022-12-19T07:59:39;98896.28;;;-1.01;100.00
60589;BME280;46421;48.610;9.334;2022-12-19T08:02:04;98885.84;;;-0.85;100.00
60589;BME280;46421;48.610;9.334;2022-12-19T08:04:30;98875.16;;;-0.80;100.00
60589;BME280;46421;48.610;9.334;2022-12-19T08:06:55;98883.41;;;-0.72;100.00
60589;BME280;46421;48.610;9.334;2022-12-19T08:09:21;98888.97;;;-0.62;100.00
60589;BME280;46421;48.610;9.334;2022-12-19T08:11:46;98878.09;;;-0.54;100.00
60589;BME280;46421;48.610;9.334;2022-12-19T08:14:12;98879.88;;;-0.55;100.00
60589;BME280;46421;48.610;9.334;2022-12-19T08:16:37;98880.63;;;-0.53;100.00
60589;BME280;46421;48.610;9.334;2022-12-19T08:19:03;98880.56;;;-0.51;100.00
60589;BME280;46421;48.610;9.334;2022-12-19T08:21:28;98881.13;;;-0.46;100.00
60589;BME280;46421;48.610;9.334;2022-12-19T08:23:54;98879.34;;;-0.45;100.00
60589;BME280;46421;48.610;9.334;2022-12-19T08:26:20;98877.25;;;-0.39;100.00
60589;BME280;46421;48.610;9.334;2022-12-19T08:28:50;98887.69;;;-0.39;100.00
60589;BME280;46421;48.610;9.334;2022-12-19T08:31:17;98894.41;;;-0.35;100.00
60589;BME280;46421;48.610;9.334;2022-12-19T08:33:42;98897.88;;;-0.34;100.00
60589;BME280;46421;48.610;9.334;2022-12-19T08:36:12;98900.50;;;-0.34;100.00
60589;BME280;46421;48.610;9.334;2022-12-19T08:38:39;98912.53;;;-0.32;100.00
60589;BME280;46421;48.610;9.334;2022-12-19T08:41:05;98912.91;;;-0.38;100.00
60589;BME280;46421;48.610;9.334;2022-12-19T08:43:31;98913.31;;;-0.29;100.00
60589;BME280;46421;48.610;9.334;2022-12-19T08:45:57;98913.06;;;-0.25;100.00
60589;BME280;46421;48.610;9.334;2022-12-19T08:48:23;98915.97;;;-0.15;100.00
60589;BME280;46421;48.610;9.334;2022-12-19T08:51:00;98919.16;;;-0.10;100.00
60589;BME280;46421;48.610;9.334;2022-12-19T08:53:28;98910.28;;;-0.07;100.00
60589;BME280;46421;48.610;9.334;2022-12-19T08:55:55;98915.88;;;0.03;100.00
60589;BME280;46421;48.610;9.334;2022-12-19T08:58:21;98913.28;;;0.17;100.00
60589;BME280;46421;48.610;9.334;2022-12-19T09:00:47;98913.44;;;0.14;100.00
60589;BME280;46421;48.610;9.334;2022-12-19T09:03:12;98919.34;;;0.18;100.00
60589;BME280;46421;48.610;9.334;2022-12-19T09:05:39;98909.66;;;0.20;100.00
60589;BME280;46421;48.610;9.334;2022-12-19T09:08:04;98897.50;;;0.19;100.00
60589;BME280;46421;48.610;9.334;2022-12-19T09:10:30;98885.09;;;0.22;100.00
60589;BME280;46421;48.610;9.334;2022-12-19T09:12:56;98879.22;;;0.33;100.00
60589;BME280;46421;48.610;9.334;2022-12-19T09:15:22;98883.53;;;0.34;100.00
60589;BME280;46421;48.610;9.334;2022-12-19T09:17:47;98881.91;;;0.17;100.00
60589;BME280;46421;48.610;9.334;2022-12-19T09:20:12;98887.53;;;0.25;100.00
60589;BME280;46421;48.610;9.334;2022-12-19T09:22:38;98891.28;;;0.36;100.00
60589;BME280;46421;48.610;9.334;2022-12-19T09:25:03;98882.38;;;0.24;100.00
60589;BME280;46421;48.610;9.334;2022-12-19T09:27:29;98878.81;;;0.25;100.00
60589;BME280;46421;48.610;9.334;2022-12-19T09:29:54;98869.69;;;0.32;100.00
60589;BME280;46421;48.610;9.334;2022-12-19T09:32:19;98867.28;;;0.43;100.00
60589;BME280;46421;48.610;9.334;2022-12-19T09:34:45;98881.31;;;0.71;100.00
60589;BME280;46421;48.610;9.334;2022-12-19T09:37:10;98865.53;;;0.87;100.00
60589;BME280;46421;48.610;9.334;2022-12-19T09:39:36;98868.19;;;1.15;100.00
60589;BME280;46421;48.610;9.334;2022-12-19T09:42:25;98868.75;;;1.47;100.00
60589;BME280;46421;48.610;9.334;2022-12-19T09:45:24;98870.03;;;1.82;100.00
60589;BME280;46421;48.610;9.334;2022-12-19T09:47:56;98876.16;;;1.95;100.00
60589;BME280;46421;48.610;9.334;2022-12-19T09:52:58;98867.28;;;1.70;100.00
60589;BME280;46421;48.610;9.334;2022-12-19T09:55:38;98867.38;;;1.69;100.00
60589;BME280;46421;48.610;9.334;2022-12-19T10:00:46;98857.06;;;1.53;100.00
60589;BME280;46421;48.610;9.334;2022-12-19T10:06:06;98862.59;;;1.76;100.00
60589;BME280;46421;48.610;9.334;2022-12-19T10:08:37;98855.00;;;1.71;100.00
60589;BME280;46421;48.610;9.334;2022-12-19T10:14:30;98847.84;;;2.00;100.00
60589;BME280;46421;48.610;9.334;2022-12-19T10:26:17;98837.69;;;2.09;100.00
60589;BME280;46421;48.610;9.334;2022-12-19T10:31:46;98834.13;;;2.35;100.00
60589;BME280;46421;48.610;9.334;2022-12-19T10:34:22;98829.84;;;2.21;100.00
60589;BME280;46421;48.610;9.334;2022-12-19T10:36:53;98826.97;;;2.12;100.00
60589;BME280;46421;48.610;9.334;2022-12-19T10:42:29;98823.53;;;2.24;100.00
60589;BME280;46421;48.610;9.334;2022-12-19T10:44:58;98827.00;;;2.37;100.00
60589;BME280;46421;48.610;9.334;2022-12-19T10:47:26;98809.75;;;2.46;100.00
60589;BME280;46421;48.610;9.334;2022-12-19T10:49:51;98808.94;;;2.46;100.00
60589;BME280;46421;48.610;9.334;2022-12-19T10:52:48;98808.06;;;2.58;100.00
60589;BME280;46421;48.610;9.334;2022-12-19T10:57:57;98821.88;;;2.99;100.00
60589;BME280;46421;48.610;9.334;2022-12-19T11:00:23;98827.00;;;3.13;100.00
60589;BME280;46421;48.610;9.334;2022-12-19T11:02:50;98813.09;;;3.24;100.00
60589;BME280;46421;48.610;9.334;2022-12-19T11:05:30;98816.78;;;3.22;100.00
60589;BME280;46421;48.610;9.334;2022-12-19T11:10:52;98818.81;;;2.68;100.00
60589;BME280;46421;48.610;9.334;2022-12-19T11:16:02;98791.28;;;2.61;100.00
60589;BME280;46421;48.610;9.334;2022-12-19T11:18:35;98784.13;;;3.00;100.00
60589;BME280;46421;48.610;9.334;2022-12-19T11:21:03;98784.81;;;3.39;100.00
60589;BME280;46421;48.610;9.334;2022-12-19T11:23:30;98776.88;;;3.76;100.00
60589;BME280;46421;48.610;9.334;2022-12-19T11:26:01;98769.38;;;3.94;100.00
60589;BME280;46421;48.610;9.334;2022-12-19T11:28:37;98771.06;;;4.07;100.00
60589;BME280;46421;48.610;9.334;2022-12-19T11:31:21;98767.38;;;4.43;100.00
60589;BME280;46421;48.610;9.334;2022-12-19T11:33:53;98766.78;;;4.74;100.00
60589;BME280;46421;48.610;9.334;2022-12-19T11:38:53;98758.34;;;5.47;96.44
60589;BME280;46421;48.610;9.334;2022-12-19T11:41:28;98750.91;;;6.46;88.93
60589;BME280;46421;48.610;9.334;2022-12-19T11:43:59;98753.47;;;7.77;84.00
60589;BME280;46421;48.610;9.334;2022-12-19T11:49:18;98740.56;;;9.51;75.96
60589;BME280;46421;48.610;9.334;2022-12-19T11:51:59;98732.59;;;8.97;71.66
60589;BME280;46421;48.610;9.334;2022-12-19T11:54:54;98726.25;;;8.80;73.94
60589;BME280;46421;48.610;9.334;2022-12-19T11:57:16;98725.84;;;8.37;75.39
60589;BME280;46421;48.610;9.334;2022-12-19T11:59:42;98718.25;;;7.77;76.62
60589;BME280;46421;48.610;9.334;2022-12-19T12:07:31;98721.59;;;7.30;82.40
60589;BME280;46421;48.610;9.334;2022-12-19T12:10:16;98726.91;;;6.59;84.25
60589;BME280;46421;48.610;9.334;2022-12-19T12:12:59;98745.59;;;6.15;89.79
60589;BME280;46421;48.610;9.334;2022-12-19T12:21:18;98733.13;;;6.48;90.42
60589;BME280;46421;48.610;9.334;2022-12-19T12:23:53;98738.44;;;6.58;88.75
60589;BME280;46421;48.610;9.334;2022-12-19T12:26:29;98741.38;;;6.65;89.87
60589;BME280;46421;48.610;9.334;2022-12-19T12:31:34;98730.69;;;6.05;91.42
60589;BME280;46421;48.610;9.334;2022-12-19T12:39:21;98721.66;;;5.11;95.24
60589;BME280;46421;48.610;9.334;2022-12-19T12:44:39;98714.69;;;4.78;100.00
60589;BME280;46421;48.610;9.334;2022-12-19T12:47:14;98699.13;;;4.63;100.00
60589;BME280;46421;48.610;9.334;2022-12-19T12:49:47;98704.91;;;4.57;100.00
60589;BME280;46421;48.610;9.334;2022-12-19T12:52:18;98704.78;;;4.58;100.00
60589;BME280;46421;48.610;9.334;2022-12-19T12:54:45;98706.97;;;4.42;100.00
60589;BME280;46421;48.610;9.334;2022-12-19T12:57:37;98696.31;;;4.43;100.00
60589;BME280;46421;48.610;9.334;2022-12-19T13:00:19;98696.66;;;4.50;100.00
60589;BME280;46421;48.610;9.334;2022-12-19T13:02:46;98689.81;;;4.48;100.00
60589;BME280;46421;48.610;9.334;2022-12-19T13:07:57;98689.47;;;4.30;100.00
60589;BME280;46421;48.610;9.334;2022-12-19T13:10:27;98689.00;;;4.13;100.00
60589;BME280;46421;48.610;9.334;2022-12-19T13:13:07;98685.16;;;3.83;100.00
60589;BME280;46421;48.610;9.334;2022-12-19T13:15:36;98687.22;;;3.91;100.00
60589;BME280;46421;48.610;9.334;2022-12-19T13:20:52;98685.06;;;3.96;100.00
60589;BME280;46421;48.610;9.334;2022-12-19T13:23:31;98679.94;;;3.94;100.00
60589;BME280;46421;48.610;9.334;2022-12-19T13:25:57;98678.72;;;3.87;100.00
60589;BME280;46421;48.610;9.334;2022-12-19T13:41:45;98695.03;;;2.73;100.00
60589;BME280;46421;48.610;9.334;2022-12-19T13:44:30;98699.59;;;2.71;100.00
60589;BME280;46421;48.610;9.334;2022-12-19T13:47:00;98700.97;;;2.63;100.00
60589;BME280;46421;48.610;9.334;2022-12-19T13:49:31;98706.63;;;2.70;100.00
60589;BME280;46421;48.610;9.334;2022-12-19T13:51:58;98700.28;;;2.73;100.00
60589;BME280;46421;48.610;9.334;2022-12-19T13:54:26;98698.84;;;2.68;100.00
60589;BME280;46421;48.610;9.334;2022-12-19T13:56:54;98702.22;;;2.71;100.00
60589;BME280;46421;48.610;9.334;2022-12-19T13:59:21;98703.59;;;2.63;100.00
60589;BME280;46421;48.610;9.334;2022-12-19T14:01:49;98699.13;;;2.52;100.00
60589;BME280;46421;48.610;9.334;2022-12-19T14:04:30;98693.66;;;2.43;100.00
60589;BME280;46421;48.610;9.334;2022-12-19T14:06:59;98702.72;;;2.39;100.00
60589;BME280;46421;48.610;9.334;2022-12-19T14:09:27;98707.88;;;2.14;100.00
60589;BME280;46421;48.610;9.334;2022-12-19T14:11:56;98705.06;;;2.04;100.00
60589;BME280;46421;48.610;9.334;2022-12-19T14:14:22;98712.00;;;2.05;100.00
60589;BME280;46421;48.610;9.334;2022-12-19T14:17:10;98710.22;;;1.93;100.00
60589;BME280;46421;48.610;9.334;2022-12-19T14:19:39;98718.50;;;1.87;100.00
60589;BME280;46421;48.610;9.334;2022-12-19T14:24:59;98713.25;;;1.74;100.00
60589;BME280;46421;48.610;9.334;2022-12-19T14:27:32;98710.53;;;1.76;100.00
60589;BME280;46421;48.610;9.334;2022-12-19T14:30:03;98712.41;;;1.73;100.00
60589;BME280;46421;48.610;9.334;2022-12-19T14:32:30;98716.22;;;1.82;100.00
60589;BME280;46421;48.610;9.334;2022-12-19T14:34:58;98719.97;;;1.78;100.00
60589;BME280;46421;48.610;9.334;2022-12-19T14:37:29;98713.91;;;1.78;100.00
60589;BME280;46421;48.610;9.334;2022-12-19T14:40:06;98711.59;;;1.73;100.00
60589;BME280;46421;48.610;9.334;2022-12-19T14:42:32;98711.16;;;1.66;100.00
60589;BME280;46421;48.610;9.334;2022-12-19T14:45:39;98722.63;;;1.38;100.00
60589;BME280;46421;48.610;9.334;2022-12-19T14:48:29;98718.09;;;1.27;100.00
60589;BME280;46421;48.610;9.334;2022-12-19T14:51:04;98718.41;;;1.22;100.00
60589;BME280;46421;48.610;9.334;2022-12-19T14:53:30;98723.00;;;1.19;100.00
60589;BME280;46421;48.610;9.334;2022-12-19T14:56:04;98718.69;;;1.18;100.00
60589;BME280;46421;48.610;9.334;2022-12-19T14:58:32;98710.50;;;1.09;100.00
60589;BME280;46421;48.610;9.334;2022-12-19T15:01:00;98719.41;;;1.07;100.00
60589;BME280;46421;48.610;9.334;2022-12-19T15:03:31;98714.56;;;1.01;100.00
60589;BME280;46421;48.610;9.334;2022-12-19T15:06:13;98710.47;;;0.97;100.00